createdAt,value
2023-10-08T00:00:50.542Z,5.87
2023-10-08T00:03:21.608Z,6.50
2023-10-08T00:05:50.748Z,5.80
2023-10-08T00:08:19.325Z,7.30
2023-10-08T00:10:47.190Z,5.67
2023-10-08T00:13:16.841Z,5.00
2023-10-08T00:15:53.747Z,5.43
2023-10-08T00:18:24.901Z,4.90
2023-10-08T00:20:59.700Z,5.47
2023-10-08T00:23:27.883Z,5.03
2023-10-08T00:25:56.074Z,5.30
2023-10-08T00:28:24.125Z,6.00
2023-10-08T00:30:54.722Z,6.57
2023-10-08T00:33:25.436Z,5.87
2023-10-08T00:35:53.445Z,4.83
2023-10-08T00:38:22.248Z,5.47
2023-10-08T00:40:50.389Z,4.57
2023-10-08T00:43:35.332Z,5.87
2023-10-08T00:46:05.118Z,5.47
2023-10-08T00:48:37.061Z,5.17
2023-10-08T00:51:24.871Z,5.07
2023-10-08T00:53:58.866Z,5.93
2023-10-08T00:56:46.091Z,5.87
2023-10-08T00:59:16.979Z,5.80
2023-10-08T01:01:52.268Z,6.63
2023-10-08T01:04:27.462Z,6.83
2023-10-08T01:06:57.217Z,6.43
2023-10-08T01:09:32.963Z,6.90
2023-10-08T01:12:14.351Z,5.40
2023-10-08T01:14:44.463Z,8.67
2023-10-08T01:17:16.222Z,4.53
2023-10-08T01:19:46.681Z,6.03
2023-10-08T01:22:19.642Z,5.17
2023-10-08T01:24:49.785Z,7.00
2023-10-08T01:27:22.660Z,8.33
2023-10-08T01:29:52.011Z,5.50
2023-10-08T01:32:20.779Z,5.60
2023-10-08T01:34:48.990Z,6.37
2023-10-08T01:37:19.781Z,5.00
2023-10-08T01:39:49.451Z,5.10
2023-10-08T01:42:18.959Z,3.80
2023-10-08T01:44:48.480Z,6.20
2023-10-08T01:47:17.216Z,4.93
2023-10-08T01:49:47.029Z,4.33
2023-10-08T01:52:20.113Z,3.97
2023-10-08T01:54:49.463Z,5.63
2023-10-08T01:57:18.152Z,10.00
2023-10-08T01:59:46.640Z,7.77
2023-10-08T02:02:16.487Z,5.00
2023-10-08T02:04:45.496Z,4.90
2023-10-08T02:07:14.051Z,6.37
2023-10-08T02:09:42.358Z,7.20
2023-10-08T02:12:15.194Z,6.37
2023-10-08T02:14:43.725Z,6.93
2023-10-08T02:17:11.845Z,6.40
2023-10-08T02:19:39.880Z,7.67
2023-10-08T02:22:10.753Z,5.67
2023-10-08T02:24:39.062Z,4.63
2023-10-08T02:27:07.842Z,6.07
2023-10-08T02:29:37.368Z,7.17
2023-10-08T02:32:05.699Z,5.87
2023-10-08T02:34:33.972Z,5.63
2023-10-08T02:37:01.923Z,5.70
2023-10-08T02:39:31.469Z,7.93
2023-10-08T02:42:01.347Z,6.07
2023-10-08T02:44:29.658Z,6.40
2023-10-08T02:46:58.997Z,6.73
2023-10-08T02:49:31.354Z,7.17
2023-10-08T02:51:59.912Z,4.93
2023-10-08T02:54:33.936Z,6.50
2023-10-08T02:57:05.220Z,7.40
2023-10-08T02:59:40.995Z,6.50
2023-10-08T03:02:16.486Z,6.27
2023-10-08T03:04:46.842Z,7.00
2023-10-08T03:07:22.527Z,6.67
2023-10-08T03:09:51.746Z,6.10
2023-10-08T03:12:20.042Z,5.90
2023-10-08T03:15:02.371Z,6.80
2023-10-08T03:17:31.770Z,7.10
2023-10-08T03:20:19.823Z,8.53
2023-10-08T03:22:47.746Z,9.43
2023-10-08T03:25:17.947Z,8.10
2023-10-08T03:27:45.872Z,5.70
2023-10-08T03:30:15.816Z,6.30
2023-10-08T03:32:46.661Z,5.10
2023-10-08T03:35:14.678Z,8.63
2023-10-08T03:37:47.361Z,3.90
2023-10-08T03:40:26.510Z,9.80
2023-10-08T03:42:57.009Z,6.07
2023-10-08T03:45:38.882Z,7.90
2023-10-08T03:48:12.874Z,6.53
2023-10-08T03:50:42.811Z,6.27
2023-10-08T03:53:12.941Z,6.73
2023-10-08T03:55:42.627Z,5.83
2023-10-08T03:58:18.405Z,10.20
2023-10-08T04:00:47.162Z,4.73
2023-10-08T04:03:24.808Z,7.50
2023-10-08T04:06:05.780Z,11.23
2023-10-08T04:08:44.647Z,6.20
2023-10-08T04:11:29.718Z,6.57
2023-10-08T04:14:00.950Z,8.20
2023-10-08T04:16:29.066Z,7.00
2023-10-08T04:18:58.374Z,6.80
2023-10-08T04:21:28.826Z,5.27
2023-10-08T04:23:58.777Z,5.60
2023-10-08T04:26:26.859Z,5.23
2023-10-08T04:28:58.597Z,5.73
2023-10-08T04:31:29.581Z,6.93
2023-10-08T04:34:01.980Z,7.73
2023-10-08T04:36:30.255Z,8.33
2023-10-08T04:39:03.750Z,8.30
2023-10-08T04:41:31.961Z,5.10
2023-10-08T04:44:04.019Z,6.00
2023-10-08T04:46:47.837Z,10.20
2023-10-08T04:49:30.514Z,8.83
2023-10-08T04:51:59.677Z,8.53
2023-10-08T04:54:31.163Z,4.67
2023-10-08T04:57:01.053Z,5.60
2023-10-08T04:59:34.957Z,6.50
2023-10-08T05:02:20.248Z,5.87
2023-10-08T05:05:23.167Z,6.40
2023-10-08T05:08:18.634Z,6.30
2023-10-08T05:11:01.877Z,6.80
2023-10-08T05:13:34.285Z,6.70
2023-10-08T05:16:13.201Z,8.73
2023-10-08T05:18:55.081Z,8.50
2023-10-08T05:21:42.119Z,6.10
2023-10-08T05:24:14.662Z,7.67
2023-10-08T05:26:50.546Z,7.73
2023-10-08T05:29:36.218Z,7.97
2023-10-08T05:32:21.847Z,7.93
2023-10-08T05:35:13.544Z,6.70
2023-10-08T05:37:43.462Z,10.33
2023-10-08T05:40:22.867Z,9.57
2023-10-08T05:43:02.089Z,7.40
2023-10-08T05:45:36.272Z,8.67
2023-10-08T05:48:14.382Z,14.53
2023-10-08T05:50:56.260Z,8.17
2023-10-08T05:53:44.490Z,7.73
2023-10-08T05:56:29.658Z,6.60
2023-10-08T05:59:19.275Z,5.60
2023-10-08T06:01:47.513Z,8.33
2023-10-08T06:04:32.080Z,11.87
2023-10-08T06:07:13.300Z,8.33
2023-10-08T06:09:51.671Z,13.60
2023-10-08T06:12:31.351Z,7.60
2023-10-08T06:15:13.201Z,8.10
2023-10-08T06:18:01.095Z,6.33
2023-10-08T06:20:30.189Z,7.43
2023-10-08T06:23:04.554Z,11.53
2023-10-08T06:25:33.965Z,5.83
2023-10-08T06:28:04.062Z,11.30
2023-10-08T06:30:35.999Z,10.03
2023-10-08T06:33:04.969Z,8.80
2023-10-08T06:35:34.222Z,9.10
2023-10-08T06:38:08.312Z,10.97
2023-10-08T06:40:44.464Z,6.60
2023-10-08T06:43:25.619Z,7.47
2023-10-08T06:45:54.405Z,7.33
2023-10-08T06:48:24.883Z,6.00
2023-10-08T06:50:58.478Z,9.10
2023-10-08T06:53:30.737Z,11.20
2023-10-08T06:56:05.483Z,14.60
2023-10-08T06:58:34.394Z,9.33
2023-10-08T07:01:05.958Z,12.40
2023-10-08T07:03:35.095Z,8.60
2023-10-08T07:06:05.245Z,8.80
2023-10-08T07:08:34.267Z,6.57
2023-10-08T07:11:07.955Z,9.13
2023-10-08T07:13:38.235Z,8.50
2023-10-08T07:16:12.211Z,8.17
2023-10-08T07:18:40.582Z,12.80
2023-10-08T07:21:13.857Z,11.10
2023-10-08T07:23:57.329Z,7.50
2023-10-08T07:26:37.224Z,11.43
2023-10-08T07:29:09.619Z,8.87
2023-10-08T07:31:42.543Z,10.40
2023-10-08T07:34:19.078Z,10.53
2023-10-08T07:36:49.938Z,13.23
2023-10-08T07:39:27.112Z,19.17
2023-10-08T07:41:56.782Z,15.73
2023-10-08T07:44:25.368Z,7.93
2023-10-08T07:46:55.632Z,11.50
2023-10-08T07:49:24.183Z,9.97
2023-10-08T07:51:52.798Z,13.43
2023-10-08T07:54:23.865Z,10.40
2023-10-08T07:56:53.147Z,7.57
2023-10-08T07:59:23.190Z,7.53
2023-10-08T08:01:53.282Z,9.80
2023-10-08T08:04:23.991Z,8.87
2023-10-08T08:06:52.526Z,9.90
2023-10-08T08:09:21.524Z,13.67
2023-10-08T08:11:49.553Z,9.57
2023-10-08T08:14:18.915Z,7.80
2023-10-08T08:16:49.416Z,11.50
2023-10-08T08:19:17.996Z,9.40
2023-10-08T08:21:47.137Z,12.90
2023-10-08T08:24:29.663Z,8.10
2023-10-08T08:27:09.252Z,10.03
2023-10-08T08:29:45.591Z,8.63
2023-10-08T08:32:16.519Z,14.43
2023-10-08T08:34:45.027Z,9.33
2023-10-08T08:37:13.730Z,8.90
2023-10-08T08:39:42.636Z,19.13
2023-10-08T08:42:11.459Z,16.50
2023-10-08T08:44:46.825Z,10.50
2023-10-08T08:47:18.893Z,15.10
2023-10-08T08:49:47.971Z,11.90
2023-10-08T08:52:16.290Z,8.57
2023-10-08T08:54:44.454Z,9.13
2023-10-08T08:57:15.375Z,10.33
2023-10-08T08:59:49.885Z,12.53
2023-10-08T09:02:19.863Z,8.57
2023-10-08T09:04:50.170Z,7.77
2023-10-08T09:07:22.556Z,11.43
2023-10-08T09:09:51.361Z,16.20
2023-10-08T09:12:22.081Z,15.10
2023-10-08T09:14:49.998Z,13.10
2023-10-08T09:17:20.233Z,9.47
2023-10-08T09:19:48.078Z,9.17
2023-10-08T09:22:20.843Z,9.67
2023-10-08T09:24:51.924Z,11.10
2023-10-08T09:27:22.724Z,8.47
2023-10-08T09:29:51.333Z,12.67
2023-10-08T09:32:24.724Z,8.90
2023-10-08T09:34:54.255Z,7.43
2023-10-08T09:37:23.614Z,11.10
2023-10-08T09:39:53.350Z,12.10
2023-10-08T09:42:23.755Z,10.00
2023-10-08T09:44:52.590Z,12.20
2023-10-08T09:47:24.363Z,8.33
2023-10-08T09:50:08.962Z,10.33
2023-10-08T09:52:45.649Z,10.40
2023-10-08T09:55:13.681Z,8.77
2023-10-08T09:57:42.532Z,8.40
2023-10-08T10:00:16.236Z,8.70
2023-10-08T10:02:46.638Z,14.67
2023-10-08T10:05:15.213Z,6.70
2023-10-08T10:07:44.896Z,10.73
2023-10-08T10:10:28.492Z,7.27
2023-10-08T10:13:00.679Z,9.53
2023-10-08T10:15:31.452Z,8.97
2023-10-08T10:18:11.636Z,8.53
2023-10-08T10:20:42.554Z,12.30
2023-10-08T10:23:38.830Z,8.97
2023-10-08T10:26:10.902Z,11.47
2023-10-08T10:28:39.167Z,15.30
2023-10-08T10:31:09.040Z,9.47
2023-10-08T10:33:42.327Z,10.63
2023-10-08T10:36:14.664Z,9.77
2023-10-08T10:38:43.442Z,14.63
2023-10-08T10:41:11.496Z,11.80
2023-10-08T10:43:41.524Z,12.77
2023-10-08T10:46:30.636Z,10.57
2023-10-08T10:49:05.845Z,14.10
2023-10-08T10:51:35.088Z,9.53
2023-10-08T10:54:09.062Z,11.97
2023-10-08T10:56:44.068Z,11.20
2023-10-08T10:59:19.806Z,11.30
2023-10-08T11:01:53.320Z,17.07
2023-10-08T11:04:30.130Z,10.77
2023-10-08T11:07:01.928Z,14.10
2023-10-08T11:09:39.339Z,9.23
2023-10-08T11:12:12.461Z,15.00
2023-10-08T11:14:43.738Z,12.60
2023-10-08T11:17:13.670Z,9.80
2023-10-08T11:19:43.878Z,9.50
2023-10-08T11:22:17.152Z,12.77
2023-10-08T11:24:48.693Z,10.53
2023-10-08T11:27:18.561Z,14.93
2023-10-08T11:29:48.493Z,10.30
2023-10-08T11:32:18.914Z,9.27
2023-10-08T11:34:51.192Z,9.73
2023-10-08T11:37:29.001Z,10.90
2023-10-08T11:39:59.529Z,10.97
2023-10-08T11:42:41.534Z,11.33
2023-10-08T11:45:26.924Z,10.50
2023-10-08T11:47:58.231Z,9.33
2023-10-08T11:50:32.576Z,10.77
2023-10-08T11:53:06.600Z,12.47
2023-10-08T11:55:37.465Z,10.10
2023-10-08T11:58:11.169Z,12.30
2023-10-08T12:00:45.382Z,10.37
2023-10-08T12:03:14.459Z,7.33
2023-10-08T12:05:48.387Z,10.90
2023-10-08T12:08:17.991Z,11.73
2023-10-08T12:10:47.552Z,11.10
2023-10-08T12:13:19.379Z,8.73
2023-10-08T12:15:48.515Z,12.80
2023-10-08T12:18:25.914Z,14.13
2023-10-08T12:20:56.398Z,11.50
2023-10-08T12:23:26.987Z,8.90
2023-10-08T12:25:56.845Z,17.83
2023-10-08T12:28:25.587Z,9.93
2023-10-08T12:30:54.495Z,9.60
2023-10-08T12:33:25.055Z,13.57
2023-10-08T12:35:57.004Z,10.40
2023-10-08T12:38:25.330Z,12.03
2023-10-08T12:40:54.097Z,17.30
2023-10-08T12:43:22.836Z,12.10
2023-10-08T12:45:54.078Z,10.50
2023-10-08T12:48:23.096Z,14.37
2023-10-08T12:50:57.697Z,12.90
2023-10-08T12:53:35.748Z,12.87
2023-10-08T12:56:07.622Z,12.33
2023-10-08T12:58:42.656Z,11.07
2023-10-08T13:01:11.674Z,10.30
2023-10-08T13:03:43.142Z,10.67
2023-10-08T13:06:16.042Z,9.53
2023-10-08T13:08:45.546Z,11.90
2023-10-08T13:11:13.620Z,9.00
2023-10-08T13:13:42.523Z,15.20
2023-10-08T13:16:10.573Z,11.37
2023-10-08T13:18:39.279Z,12.37
2023-10-08T13:21:07.856Z,15.00
2023-10-08T13:23:36.658Z,17.90
2023-10-08T13:26:08.292Z,12.17
2023-10-08T13:28:36.952Z,9.40
2023-10-08T13:31:11.055Z,13.80
2023-10-08T13:33:41.386Z,13.63
2023-10-08T13:36:18.911Z,10.53
2023-10-08T13:38:48.576Z,12.47
2023-10-08T13:41:19.154Z,14.60
2023-10-08T13:43:48.285Z,13.00
2023-10-08T13:46:18.698Z,13.20
2023-10-08T13:48:49.793Z,9.20
2023-10-08T13:51:24.724Z,11.13
2023-10-08T13:53:54.576Z,11.00
2023-10-08T13:56:27.977Z,11.67
2023-10-08T13:59:05.275Z,18.60
2023-10-08T14:01:35.095Z,15.60
2023-10-08T14:04:07.530Z,11.20
2023-10-08T14:06:36.640Z,14.07
2023-10-08T14:09:08.826Z,15.70
2023-10-08T14:11:38.169Z,11.20
2023-10-08T14:14:12.295Z,12.73
2023-10-08T14:16:43.221Z,14.83
2023-10-08T14:19:13.728Z,17.57
2023-10-08T14:21:50.668Z,15.70
2023-10-08T14:24:18.873Z,16.50
2023-10-08T14:26:55.767Z,15.40
2023-10-08T14:29:25.739Z,20.40
2023-10-08T14:31:57.337Z,18.37
2023-10-08T14:34:51.384Z,14.23
2023-10-08T14:37:36.513Z,17.00
2023-10-08T14:40:22.628Z,21.10
2023-10-08T14:43:01.727Z,14.70
2023-10-08T14:45:34.565Z,16.90
2023-10-08T14:48:03.229Z,12.17
2023-10-08T14:50:34.087Z,12.43
2023-10-08T14:53:05.679Z,14.90
2023-10-08T14:55:35.839Z,16.50
2023-10-08T14:58:09.301Z,12.13
2023-10-08T15:00:38.659Z,13.33
2023-10-08T15:03:07.463Z,20.50
2023-10-08T15:05:37.934Z,10.30
2023-10-08T15:08:11.141Z,15.03
2023-10-08T15:10:39.753Z,12.53
2023-10-08T15:13:09.515Z,12.80
2023-10-08T15:15:37.424Z,15.50
2023-10-08T15:18:07.362Z,17.67
2023-10-08T15:20:36.273Z,15.50
2023-10-08T15:23:04.371Z,12.33
2023-10-08T15:25:32.317Z,16.83
2023-10-08T15:28:00.173Z,13.30
2023-10-08T15:30:30.684Z,14.93
2023-10-08T15:32:58.852Z,13.83
2023-10-08T15:35:27.033Z,18.17
2023-10-08T15:37:56.944Z,16.53
2023-10-08T15:40:25.378Z,14.50
2023-10-08T15:42:55.157Z,21.70
2023-10-08T15:45:25.917Z,20.63
2023-10-08T15:47:55.902Z,16.40
2023-10-08T15:50:26.502Z,17.30
2023-10-08T15:52:56.572Z,17.33
2023-10-08T15:55:26.615Z,20.73
2023-10-08T15:57:54.527Z,17.33
2023-10-08T16:00:22.560Z,19.33
2023-10-08T16:02:50.665Z,16.97
2023-10-08T16:05:19.990Z,17.10
2023-10-08T16:07:48.094Z,22.00
2023-10-08T16:10:16.327Z,21.63
2023-10-08T16:12:44.450Z,20.47
2023-10-08T16:15:12.785Z,19.63
2023-10-08T16:17:42.019Z,14.60
2023-10-08T16:20:16.442Z,22.30
2023-10-08T16:22:48.696Z,21.40
2023-10-08T16:25:17.630Z,13.80
2023-10-08T16:27:49.336Z,17.03
2023-10-08T16:30:20.718Z,20.17
2023-10-08T16:32:49.618Z,19.20
2023-10-08T16:35:17.943Z,28.53
2023-10-08T16:37:47.481Z,23.90
2023-10-08T16:40:15.577Z,15.57
2023-10-08T16:42:43.506Z,26.10
2023-10-08T16:45:12.142Z,18.63
2023-10-08T16:47:40.145Z,18.67
2023-10-08T16:50:09.427Z,15.40
2023-10-08T16:52:37.418Z,12.90
2023-10-08T16:55:07.266Z,18.80
2023-10-08T16:57:35.287Z,16.10
2023-10-08T17:00:11.914Z,17.27
2023-10-08T17:02:41.318Z,16.77
2023-10-08T17:05:10.574Z,24.10
2023-10-08T17:07:38.440Z,17.60
2023-10-08T17:10:09.256Z,19.10
2023-10-08T17:12:37.248Z,14.30
2023-10-08T17:15:06.859Z,18.87
2023-10-08T17:17:35.068Z,27.50
2023-10-08T17:20:04.353Z,17.77
2023-10-08T17:22:32.823Z,18.70
2023-10-08T17:25:00.781Z,17.60
2023-10-08T17:27:30.044Z,24.73
2023-10-08T17:29:57.958Z,15.67
2023-10-08T17:32:26.587Z,13.70
2023-10-08T17:34:55.308Z,16.30
2023-10-08T17:37:24.905Z,16.70
2023-10-08T17:39:52.879Z,12.43
2023-10-08T17:42:20.896Z,16.67
2023-10-08T17:44:50.124Z,16.47
2023-10-08T17:47:18.027Z,17.93
2023-10-08T17:49:46.180Z,21.17
2023-10-08T17:52:14.904Z,18.83
2023-10-08T17:54:44.137Z,27.23
2023-10-08T17:57:14.440Z,25.50
2023-10-08T17:59:42.869Z,16.67
2023-10-08T18:02:12.248Z,18.17
2023-10-08T18:04:40.241Z,18.37
2023-10-08T18:07:08.193Z,13.47
2023-10-08T18:09:37.389Z,13.33
2023-10-08T18:12:07.784Z,20.07
2023-10-08T18:14:36.320Z,14.40
2023-10-08T18:17:04.424Z,17.23
2023-10-08T18:19:33.687Z,13.93
2023-10-08T18:22:01.593Z,15.50
2023-10-08T18:24:29.582Z,18.63
2023-10-08T18:26:57.647Z,18.43
2023-10-08T18:29:26.777Z,21.77
2023-10-08T18:31:54.665Z,17.23
2023-10-08T18:34:22.568Z,16.20
2023-10-08T18:36:51.926Z,14.90
2023-10-08T18:39:19.946Z,17.37
2023-10-08T18:41:48.499Z,15.03
2023-10-08T18:44:18.241Z,14.30
2023-10-08T18:46:47.492Z,15.93
2023-10-08T18:49:16.471Z,13.90
2023-10-08T18:51:45.141Z,15.50
2023-10-08T18:54:14.703Z,17.67
2023-10-08T18:56:43.242Z,18.50
2023-10-08T18:59:12.774Z,12.60
2023-10-08T19:01:44.904Z,13.50
2023-10-08T19:04:13.424Z,11.87
2023-10-08T19:06:41.448Z,16.53
2023-10-08T19:09:11.611Z,17.50
2023-10-08T19:11:41.764Z,16.80
2023-10-08T19:14:09.938Z,14.13
2023-10-08T19:16:38.463Z,12.03
2023-10-08T19:19:09.394Z,16.60
2023-10-08T19:21:38.768Z,11.10
2023-10-08T19:24:08.515Z,16.57
2023-10-08T19:26:36.640Z,19.03
2023-10-08T19:29:06.192Z,11.37
2023-10-08T19:31:34.481Z,11.33
2023-10-08T19:34:02.708Z,13.83
2023-10-08T19:36:33.147Z,17.03
2023-10-08T19:39:01.679Z,9.20
2023-10-08T19:41:30.016Z,13.23
2023-10-08T19:43:59.925Z,17.03
2023-10-08T19:46:29.180Z,14.97
2023-10-08T19:48:57.303Z,12.40
2023-10-08T19:51:25.465Z,10.47
2023-10-08T19:53:54.229Z,10.60
2023-10-08T19:56:23.679Z,12.10
2023-10-08T19:58:51.497Z,15.40
2023-10-08T20:01:19.412Z,22.43
2023-10-08T20:03:48.869Z,10.80
2023-10-08T20:06:17.119Z,16.93
2023-10-08T20:08:46.403Z,12.47
2023-10-08T20:11:15.535Z,6.37
2023-10-08T20:13:45.581Z,13.73
2023-10-08T20:16:13.854Z,13.10
2023-10-08T20:18:42.096Z,13.80
2023-10-08T20:21:11.563Z,14.20
2023-10-08T20:23:40.699Z,12.97
2023-10-08T20:26:13.179Z,20.00
2023-10-08T20:28:41.055Z,14.30
2023-10-08T20:31:14.062Z,15.33
2023-10-08T20:33:42.375Z,16.83
2023-10-08T20:36:11.936Z,14.13
2023-10-08T20:38:40.330Z,14.43
2023-10-08T20:41:16.953Z,14.67
2023-10-08T20:43:45.315Z,16.87
2023-10-08T20:46:17.715Z,13.03
2023-10-08T20:48:47.252Z,15.47
2023-10-08T20:51:18.645Z,9.50
2023-10-08T20:53:48.137Z,18.80
2023-10-08T20:56:16.948Z,11.70
2023-10-08T20:58:45.190Z,12.67
2023-10-08T21:01:15.629Z,16.00
2023-10-08T21:03:43.632Z,13.90
2023-10-08T21:06:12.312Z,18.07
2023-10-08T21:08:41.528Z,9.00
2023-10-08T21:11:17.358Z,11.10
2023-10-08T21:13:45.837Z,12.10
2023-10-08T21:16:17.291Z,8.07
2023-10-08T21:18:45.265Z,9.47
2023-10-08T21:21:13.533Z,13.17
2023-10-08T21:23:42.842Z,11.23
2023-10-08T21:26:10.705Z,11.83
2023-10-08T21:28:39.106Z,10.33
2023-10-08T21:31:10.342Z,11.70
2023-10-08T21:33:38.581Z,12.53
2023-10-08T21:36:06.948Z,14.23
2023-10-08T21:38:35.030Z,11.90
2023-10-08T21:41:05.160Z,7.40
2023-10-08T21:43:33.710Z,10.97
2023-10-08T21:46:01.673Z,10.77
2023-10-08T21:48:30.786Z,11.40
2023-10-08T21:50:58.794Z,16.50
2023-10-08T21:53:27.199Z,14.83
2023-10-08T21:55:55.157Z,10.70
2023-10-08T21:58:25.026Z,8.20
2023-10-08T22:01:00.772Z,16.87
2023-10-08T22:03:29.083Z,16.43
2023-10-08T22:05:57.159Z,6.20
2023-10-08T22:08:26.230Z,9.53
2023-10-08T22:10:54.414Z,13.83
2023-10-08T22:13:22.265Z,13.17
2023-10-08T22:15:56.019Z,10.80
2023-10-08T22:18:31.091Z,10.30
2023-10-08T22:21:08.622Z,10.20
2023-10-08T22:23:39.989Z,10.37
2023-10-08T22:26:11.554Z,14.13
2023-10-08T22:28:43.236Z,11.53
2023-10-08T22:31:15.798Z,9.33
2023-10-08T22:33:49.223Z,13.87
2023-10-08T22:36:29.211Z,9.83
2023-10-08T22:38:58.394Z,9.27
2023-10-08T22:41:36.826Z,16.37
2023-10-08T22:44:06.713Z,10.87
2023-10-08T22:46:42.866Z,15.90
2023-10-08T22:49:19.418Z,11.77
2023-10-08T22:51:50.074Z,11.57
2023-10-08T22:54:18.683Z,10.03
2023-10-08T22:56:47.052Z,10.90
2023-10-08T22:59:17.031Z,12.80
2023-10-08T23:01:48.820Z,14.23
2023-10-08T23:04:17.854Z,9.27
2023-10-08T23:06:47.918Z,8.37
2023-10-08T23:09:16.235Z,11.13
2023-10-08T23:11:45.489Z,8.73
2023-10-08T23:14:15.456Z,9.90
2023-10-08T23:16:44.561Z,12.37
2023-10-08T23:19:15.465Z,12.50
2023-10-08T23:21:45.774Z,12.57
2023-10-08T23:24:14.462Z,12.87
2023-10-08T23:26:43.130Z,10.93
2023-10-08T23:29:11.047Z,9.80
2023-10-08T23:31:42.112Z,14.33
2023-10-08T23:34:11.324Z,6.83
2023-10-08T23:36:41.540Z,12.27
2023-10-08T23:39:17.464Z,10.70
2023-10-08T23:41:52.891Z,7.13
2023-10-08T23:44:27.378Z,10.03
2023-10-08T23:47:05.615Z,7.63
2023-10-08T23:49:48.116Z,15.43
2023-10-08T23:52:23.577Z,13.10
2023-10-08T23:54:57.787Z,9.57
2023-10-08T23:57:40.609Z,15.47
